Time;durP1;ratioP1;P1;durP2;ratioP2;P2;SDS_P1;SDS_P2;PMS_P1;PMS_P2;Temp;Humidity;BMP_temperature;BMP_pressure;BME280_temperature;BME280_humidity;BME280_pressure;Samples;Min_cycle;Max_cycle;Signal;HPM_P1;HPM_P2
2022/11/15 00:01:54;;;;;;;9.27;2.97;;;10.80;78.80;;;;;;5012531;28;20057;-86
2022/11/15 00:04:39;;;;;;;5.20;3.33;;;10.80;77.50;;;;;;5011772;28;20057;-85
2022/11/15 00:07:23;;;;;;;9.43;3.97;;;10.80;76.70;;;;;;5012014;28;20057;-79
2022/11/15 00:10:08;;;;;;;6.30;3.50;;;10.80;78.50;;;;;;5012220;28;20403;-85
2022/11/15 00:12:53;;;;;;;8.50;3.63;;;10.80;79.80;;;;;;5012450;28;20049;-85
2022/11/15 00:15:39;;;;;;;10.95;2.97;;;10.70;79.90;;;;;;5011514;28;20077;-84
2022/11/15 00:18:24;;;;;;;4.30;2.97;;;10.70;81.10;;;;;;5012197;28;20053;-79
2022/11/15 00:21:11;;;;;;;5.90;3.38;;;10.70;83.50;;;;;;5012244;28;20053;-84
2022/11/15 00:23:55;;;;;;;5.88;3.10;;;10.60;86.90;;;;;;5012155;28;20045;-84
2022/11/15 00:26:40;;;;;;;5.63;2.60;;;10.60;89.00;;;;;;5011312;28;20049;-83
2022/11/15 00:29:24;;;;;;;5.60;3.08;;;10.60;91.00;;;;;;5002287;28;20056;-80
2022/11/15 00:32:10;;;;;;;5.35;3.05;;;10.50;90.80;;;;;;5012352;28;20049;-85
2022/11/15 00:34:55;;;;;;;5.40;2.88;;;10.50;92.30;;;;;;5012226;28;20061;-83
2022/11/15 00:37:39;;;;;;;6.45;3.22;;;10.40;91.90;;;;;;5011799;28;20057;-84
2022/11/15 00:40:24;;;;;;;5.25;3.05;;;10.50;91.30;;;;;;5012584;28;20061;-81
2022/11/15 00:43:08;;;;;;;6.38;3.05;;;10.50;90.80;;;;;;5007996;28;20379;-84
2022/11/15 00:45:53;;;;;;;5.25;3.45;;;10.50;90.60;;;;;;5016153;28;20102;-83
2022/11/15 00:48:38;;;;;;;5.90;2.90;;;10.50;91.20;;;;;;5016159;28;20061;-83
2022/11/15 00:51:22;;;;;;;6.65;3.40;;;10.40;92.40;;;;;;5001542;28;20045;-84
2022/11/15 00:54:07;;;;;;;5.70;3.53;;;10.30;93.30;;;;;;5015735;28;20073;-83
2022/11/15 00:56:51;;;;;;;5.53;3.60;;;10.30;94.10;;;;;;5015836;28;20049;-84
2022/11/15 00:59:36;;;;;;;5.82;3.10;;;10.30;95.40;;;;;;5028779;28;20049;-82
2022/11/15 01:02:20;;;;;;;8.50;5.60;;;10.20;97.00;;;;;;5033995;28;20044;-84
2022/11/15 01:05:05;;;;;;;7.05;3.60;;;10.20;98.70;;;;;;5024441;28;20057;-84
2022/11/15 01:07:55;;;;;;;6.22;3.17;;;10.10;98.80;;;;;;5026902;28;20045;-84
2022/11/15 01:10:40;;;;;;;7.13;3.35;;;10.20;97.40;;;;;;5027127;28;20396;-83
2022/11/15 01:13:24;;;;;;;5.05;2.90;;;10.20;96.60;;;;;;5040112;28;20044;-79
2022/11/15 01:16:12;;;;;;;6.60;3.22;;;10.20;96.90;;;;;;5035108;28;20513;-84
2022/11/15 01:18:57;;;;;;;6.78;3.05;;;10.20;96.60;;;;;;5017196;28;20049;-84
2022/11/15 01:21:41;;;;;;;4.85;2.88;;;10.20;96.90;;;;;;5014419;28;20060;-84
2022/11/15 01:24:27;;;;;;;4.85;3.05;;;10.20;96.30;;;;;;5010987;28;20056;-80
2022/11/15 01:27:11;;;;;;;4.85;3.20;;;10.20;96.50;;;;;;5015630;28;20048;-85
2022/11/15 01:29:56;;;;;;;7.22;3.42;;;10.20;96.50;;;;;;5015205;28;20061;-85
2022/11/15 01:32:40;;;;;;;3.72;2.45;;;10.30;94.20;;;;;;5014316;28;20053;-84
2022/11/15 01:35:25;;;;;;;5.32;3.15;;;10.40;92.40;;;;;;5014799;28;20069;-85
2022/11/15 01:38:09;;;;;;;7.13;2.90;;;10.50;91.10;;;;;;5006702;28;20061;-85
2022/11/15 01:40:54;;;;;;;5.45;3.15;;;10.50;89.70;;;;;;5014602;28;20045;-83
2022/11/15 01:43:39;;;;;;;4.18;2.78;;;10.50;86.90;;;;;;5014405;28;20052;-84
2022/11/15 01:46:28;;;;;;;6.10;3.03;;;10.50;86.20;;;;;;5014984;28;20053;-85
2022/11/15 01:49:21;;;;;;;3.85;2.90;;;10.50;85.50;;;;;;5014588;28;20052;-85
2022/11/15 01:52:12;;;;;;;4.50;3.13;;;10.50;84.90;;;;;;5013829;28;20045;-85
2022/11/15 01:55:19;;;;;;;5.63;3.50;;;10.40;85.90;;;;;;5014899;28;20060;-85
2022/11/15 01:58:05;;;;;;;5.68;3.42;;;10.30;89.30;;;;;;5016372;28;20494;-83
2022/11/15 02:00:51;;;;;;;5.03;2.80;;;10.30;89.30;;;;;;5014424;28;20635;-83
2022/11/15 02:03:49;;;;;;;4.55;2.70;;;10.40;86.90;;;;;;5014086;28;20364;-83
2022/11/15 02:06:35;;;;;;;4.97;3.20;;;10.30;87.40;;;;;;5014069;28;20053;-82
2022/11/15 02:09:20;;;;;;;4.68;2.45;;;10.20;90.20;;;;;;5021542;28;20490;-84
2022/11/15 02:12:08;;;;;;;5.80;3.22;;;10.10;91.60;;;;;;5014969;28;20045;-83
2022/11/15 02:14:55;;;;;;;7.38;2.83;;;10.00;93.10;;;;;;5018489;28;20056;-82
2022/11/15 02:18:13;;;;;;;6.38;2.95;;;10.00;93.90;;;;;;5015073;28;20521;-83
2022/11/15 02:21:22;;;;;;;6.38;2.80;;;9.80;95.10;;;;;;4994857;28;20057;-85
2022/11/15 02:24:36;;;;;;;4.15;2.95;;;9.60;97.70;;;;;;5014310;28;20060;-83
2022/11/15 02:27:54;;;;;;;7.25;3.47;;;9.50;99.50;;;;;;5014448;28;20433;-84
2022/11/15 02:30:49;;;;;;;6.47;3.30;;;9.40;99.90;;;;;;5015609;28;20057;-79
2022/11/15 02:33:58;;;;;;;10.68;3.28;;;9.40;99.90;;;;;;5013052;28;20053;-82
2022/11/15 02:37:11;;;;;;;5.18;2.80;;;9.50;99.90;;;;;;5013026;28;20045;-83
2022/11/15 02:40:23;;;;;;;8.77;3.05;;;9.70;99.00;;;;;;5013624;28;20054;-83
2022/11/15 02:46:20;;;;;;;8.43;2.90;;;9.50;99.20;;;;;;5013705;28;20053;-83
2022/11/15 02:49:05;;;;;;;4.63;2.80;;;9.50;99.90;;;;;;5013463;28;20054;-84
2022/11/15 02:51:51;;;;;;;7.20;2.97;;;9.50;99.90;;;;;;4998253;28;20045;-83
2022/11/15 02:54:36;;;;;;;5.88;2.95;;;9.50;99.90;;;;;;5012821;28;20048;-86
2022/11/15 02:57:29;;;;;;;6.65;3.72;;;9.50;99.90;;;;;;5013731;28;20033;-83
2022/11/15 03:00:19;;;;;;;5.53;3.08;;;9.40;99.90;;;;;;5013469;28;20048;-84
2022/11/15 03:03:13;;;;;;;7.85;2.60;;;9.40;99.90;;;;;;5012959;28;20522;-84
2022/11/15 03:06:17;;;;;;;6.20;3.67;;;9.40;99.90;;;;;;5012982;28;20231;-84
2022/11/15 03:09:07;;;;;;;4.28;3.00;;;9.30;99.90;;;;;;5008270;28;20046;-83
2022/11/15 03:11:59;;;;;;;7.43;3.03;;;9.40;99.90;;;;;;5021176;28;20038;-84
2022/11/15 03:14:57;;;;;;;4.90;3.30;;;9.40;99.90;;;;;;5013899;28;20494;-85
2022/11/15 03:17:57;;;;;;;4.60;3.20;;;9.50;99.90;;;;;;5002061;28;20502;-85
2022/11/15 03:20:43;;;;;;;5.32;2.83;;;9.60;99.90;;;;;;5004390;28;20048;-83
2022/11/15 03:23:30;;;;;;;7.18;3.33;;;9.70;99.90;;;;;;4997809;28;20049;-85
2022/11/15 03:26:19;;;;;;;5.65;3.33;;;9.70;98.90;;;;;;4993522;28;20038;-85
2022/11/15 03:29:09;;;;;;;4.47;2.78;;;9.80;97.40;;;;;;4993158;28;20049;-85
2022/11/15 03:31:59;;;;;;;3.78;2.55;;;10.00;94.50;;;;;;4973235;28;20039;-85
2022/11/15 03:34:50;;;;;;;4.63;2.90;;;10.00;93.30;;;;;;4973067;28;20507;-84
2022/11/15 03:37:53;;;;;;;5.97;2.83;;;10.00;93.30;;;;;;4973715;28;20046;-78
2022/11/15 03:41:00;;;;;;;7.03;3.15;;;10.00;94.00;;;;;;4973298;28;20042;-84
2022/11/15 03:43:59;;;;;;;7.18;3.03;;;10.00;92.50;;;;;;4973166;28;20070;-85
2022/11/15 03:46:59;;;;;;;5.72;2.72;;;10.10;91.60;;;;;;4973252;28;20038;-82
2022/11/15 03:49:50;;;;;;;4.55;2.30;;;10.00;91.70;;;;;;4973152;28;20057;-83
2022/11/15 03:52:35;;;;;;;7.82;2.50;;;10.00;92.50;;;;;;4967064;28;20115;-79
2022/11/15 03:55:21;;;;;;;5.30;2.95;;;10.00;93.60;;;;;;4973631;28;20058;-82
2022/11/15 03:58:06;;;;;;;10.77;3.47;;;10.00;95.20;;;;;;4981329;28;20046;-83
2022/11/15 04:00:51;;;;;;;6.63;3.22;;;9.90;96.60;;;;;;4973505;28;20054;-83
2022/11/15 04:03:35;;;;;;;7.30;2.88;;;9.80;98.30;;;;;;4978343;28;20049;-79
2022/11/15 04:06:20;;;;;;;5.57;2.80;;;9.80;99.10;;;;;;4965928;28;20073;-83
2022/11/15 04:09:05;;;;;;;4.93;2.30;;;9.80;99.40;;;;;;4952505;28;20049;-83
2022/11/15 04:11:49;;;;;;;4.30;3.00;;;9.80;99.60;;;;;;4973160;28;20388;-84
2022/11/15 04:14:34;;;;;;;3.65;2.58;;;9.80;99.70;;;;;;4974227;28;20042;-83
2022/11/15 04:17:18;;;;;;;6.18;2.67;;;9.80;99.90;;;;;;4973863;28;20039;-83
2022/11/15 04:26:26;;;;;;;4.20;2.58;;;10.00;97.00;;;;;;4994836;28;20039;-85
2022/11/15 04:32:13;;;;;;;6.68;2.78;;;10.10;95.20;;;;;;4973811;28;20388;-84
2022/11/15 04:34:58;;;;;;;5.63;3.13;;;10.20;95.20;;;;;;4973015;28;20053;-84
2022/11/15 04:37:43;;;;;;;5.00;3.22;;;10.10;96.30;;;;;;4973021;28;20050;-83
2022/11/15 04:40:27;;;;;;;6.03;3.42;;;10.10;96.20;;;;;;4974120;28;20046;-84
2022/11/15 04:43:12;;;;;;;5.72;2.90;;;10.10;96.20;;;;;;4973669;28;20045;-84
2022/11/15 04:45:56;;;;;;;6.07;4.32;;;10.10;97.40;;;;;;4972254;28;20062;-84
2022/11/15 04:48:41;;;;;;;6.60;3.45;;;10.10;98.50;;;;;;4988428;28;20069;-81
2022/11/15 04:51:26;;;;;;;8.10;3.50;;;10.10;99.20;;;;;;4987596;28;20053;-84
2022/11/15 04:54:10;;;;;;;6.10;3.60;;;10.00;99.30;;;;;;4992552;28;20053;-83
2022/11/15 04:56:55;;;;;;;6.50;3.75;;;10.00;99.90;;;;;;4991961;28;20057;-84
2022/11/15 04:59:39;;;;;;;5.15;3.67;;;10.00;99.90;;;;;;4991820;28;20038;-79
2022/11/15 05:04:18;;;;;;;9.65;5.60;;;10.10;99.10;;;;;;4992310;28;20046;-83
2022/11/15 05:05:28;;;;;;;6.93;3.63;;;10.10;99.90;;;;;;4995585;28;20049;-84
2022/11/15 05:08:13;;;;;;;7.80;3.50;;;10.10;99.90;;;;;;4984337;28;20053;-84
2022/11/15 05:10:57;;;;;;;7.68;5.15;;;10.10;99.90;;;;;;4991594;28;20156;-83
2022/11/15 05:13:42;;;;;;;5.43;3.78;;;10.10;99.90;;;;;;4991190;28;20042;-78
2022/11/15 05:16:26;;;;;;;5.90;3.83;;;10.10;99.90;;;;;;4991923;28;20041;-84
2022/11/15 05:19:11;;;;;;;6.07;3.70;;;10.10;97.80;;;;;;4992657;28;20066;-83
2022/11/15 05:21:55;;;;;;;8.25;3.97;;;10.10;99.90;;;;;;5000110;28;20110;-83
2022/11/15 05:24:40;;;;;;;5.60;3.22;;;10.10;99.90;;;;;;5007629;28;20049;-78
2022/11/15 05:27:24;;;;;;;5.95;3.58;;;10.00;99.90;;;;;;5015498;28;20028;-81
2022/11/15 05:30:10;;;;;;;6.20;3.50;;;9.90;99.90;;;;;;5029112;28;20056;-83
2022/11/15 05:32:55;;;;;;;7.68;3.90;;;9.90;99.90;;;;;;5031156;28;20045;-83
2022/11/15 05:35:44;;;;;;;6.80;3.88;;;9.80;99.90;;;;;;5027282;28;20053;-83
2022/11/15 05:38:29;;;;;;;5.57;3.65;;;9.90;99.90;;;;;;5015648;28;20034;-83
2022/11/15 05:41:15;;;;;;;6.90;3.95;;;9.90;99.90;;;;;;5017404;28;20041;-83
2022/11/15 05:44:02;;;;;;;6.10;3.97;;;9.90;99.90;;;;;;5014790;28;20223;-83
2022/11/15 05:46:49;;;;;;;7.32;3.80;;;9.90;99.90;;;;;;5014795;28;20046;-81
2022/11/15 05:49:36;;;;;;;6.07;3.50;;;9.90;99.90;;;;;;5007009;28;20388;-81
2022/11/15 05:52:25;;;;;;;5.30;3.30;;;9.80;99.90;;;;;;5015072;28;20042;-81
2022/11/15 05:55:10;;;;;;;8.55;4.95;;;9.70;99.90;;;;;;5015014;28;20061;-78
2022/11/15 05:57:55;;;;;;;13.60;6.05;;;9.70;99.90;;;;;;5014883;28;20387;-79
2022/11/15 06:00:40;;;;;;;7.80;6.00;;;9.70;99.90;;;;;;5015263;28;20045;-80
2022/11/15 06:03:24;;;;;;;6.22;3.45;;;9.70;99.90;;;;;;5015035;28;20493;-79
2022/11/15 06:06:09;;;;;;;5.40;3.40;;;9.80;99.90;;;;;;5014899;28;20046;-79
2022/11/15 06:08:54;;;;;;;7.10;3.75;;;9.90;99.90;;;;;;5014540;28;20049;-78
2022/11/15 06:11:39;;;;;;;6.97;3.38;;;9.90;99.90;;;;;;5015018;28;20500;-78
2022/11/15 06:14:24;;;;;;;5.80;3.40;;;9.90;99.90;;;;;;5014654;28;20051;-79
2022/11/15 06:17:08;;;;;;;9.63;4.15;;;9.80;99.90;;;;;;5005734;28;20051;-79
2022/11/15 06:19:53;;;;;;;6.47;3.20;;;9.70;99.90;;;;;;5005085;28;20068;-79
2022/11/15 06:22:37;;;;;;;7.13;3.85;;;9.70;99.90;;;;;;5015007;28;20391;-79
2022/11/15 06:25:22;;;;;;;9.50;3.47;;;9.50;99.90;;;;;;5014801;28;20046;-80
2022/11/15 06:28:06;;;;;;;6.80;3.60;;;9.40;99.90;;;;;;5014175;28;20052;-79
2022/11/15 06:30:51;;;;;;;5.57;3.78;;;9.50;99.90;;;;;;5013637;28;20041;-79
2022/11/15 06:33:35;;;;;;;8.35;3.95;;;9.50;99.90;;;;;;5014562;28;20395;-79
2022/11/15 06:36:20;;;;;;;7.13;4.32;;;9.50;99.90;;;;;;5006067;28;20049;-79
2022/11/15 06:39:05;;;;;;;6.05;3.63;;;9.60;99.90;;;;;;5013315;28;20506;-79
2022/11/15 06:41:50;;;;;;;8.10;3.70;;;9.70;99.90;;;;;;5013889;28;20363;-80
2022/11/15 06:44:34;;;;;;;7.40;3.20;;;9.90;99.90;;;;;;5014417;28;20065;-79
2022/11/15 06:47:19;;;;;;;7.82;4.03;;;9.90;99.90;;;;;;5014224;28;20057;-79
2022/11/15 06:50:03;;;;;;;6.30;3.38;;;10.00;99.90;;;;;;5013817;28;20042;-79
2022/11/15 06:52:48;;;;;;;6.28;3.00;;;10.10;99.90;;;;;;5013537;28;20049;-79
2022/11/15 06:55:33;;;;;;;7.25;3.40;;;10.20;99.60;;;;;;5014079;28;20499;-79
2022/11/15 06:58:17;;;;;;;4.68;2.83;;;10.20;99.30;;;;;;5020561;28;20057;-79
2022/11/15 07:01:08;;;;;;;6.47;2.63;;;10.20;99.10;;;;;;5012908;28;20069;-79
2022/11/15 07:03:53;;;;;;;4.90;2.92;;;10.20;99.20;;;;;;5019948;28;20045;-79
2022/11/15 07:06:37;;;;;;;7.25;3.10;;;10.20;98.90;;;;;;5013835;28;20076;-79
2022/11/15 07:09:22;;;;;;;5.63;2.90;;;10.20;99.80;;;;;;5013792;28;20044;-78
2022/11/15 07:12:07;;;;;;;28.50;16.58;;;10.20;99.60;;;;;;5013109;28;20064;-78
2022/11/15 07:14:51;;;;;;;25.10;13.50;;;10.30;97.60;;;;;;5013019;28;20072;-78
2022/11/15 07:17:35;;;;;;;20.83;11.10;;;10.40;94.60;;;;;;5013637;28;20052;-78
2022/11/15 07:20:20;;;;;;;27.27;16.58;;;10.50;94.10;;;;;;5014227;28;20510;-79
2022/11/15 07:23:05;;;;;;;25.40;14.63;;;10.50;93.70;;;;;;5017179;28;20049;-79
2022/11/15 07:25:49;;;;;;;27.52;17.50;;;10.60;94.20;;;;;;5015744;28;20049;-79
2022/11/15 07:28:35;;;;;;;12.32;5.45;;;10.60;92.90;;;;;;5017392;28;20040;-79
2022/11/15 07:31:19;;;;;;;12.80;6.85;;;10.60;90.70;;;;;;5018453;28;20057;-78
2022/11/15 07:34:04;;;;;;;12.30;5.57;;;10.60;90.40;;;;;;5014462;28;20045;-79
2022/11/15 07:36:49;;;;;;;146.27;79.22;;;10.60;90.70;;;;;;5012859;28;20045;-80
2022/11/15 07:39:34;;;;;;;90.95;48.70;;;10.60;91.20;;;;;;5013200;28;20052;-79
2022/11/15 07:45:25;;;;;;;23.40;16.23;;;10.60;92.40;;;;;;5013094;28;20396;-79
2022/11/15 07:48:10;;;;;;;14.57;9.80;;;10.60;92.70;;;;;;5013217;28;20048;-80
2022/11/15 07:50:55;;;;;;;22.63;13.05;;;10.60;93.30;;;;;;5012459;28;20088;-79
2022/11/15 07:53:40;;;;;;;30.33;20.63;;;10.60;93.00;;;;;;5013094;28;20399;-79
2022/11/15 07:56:25;;;;;;;28.58;20.70;;;10.70;93.30;;;;;;5013017;28;20068;-80
2022/11/15 07:59:09;;;;;;;29.90;26.40;;;10.80;93.00;;;;;;5012418;28;20064;-79
2022/11/15 08:01:54;;;;;;;16.48;10.52;;;10.80;92.80;;;;;;5012249;28;20064;-79
2022/11/15 08:04:38;;;;;;;40.58;32.55;;;10.80;93.30;;;;;;5004538;28;20494;-80
2022/11/15 08:07:23;;;;;;;11.60;9.43;;;10.90;92.60;;;;;;5012917;28;20044;-79
2022/11/15 08:10:08;;;;;;;17.70;15.88;;;10.90;93.70;;;;;;5012265;28;20513;-79
2022/11/15 08:13:00;;;;;;;10.45;6.18;;;10.90;93.10;;;;;;5012183;28;20045;-79
2022/11/15 08:15:44;;;;;;;20.92;15.40;;;11.00;92.60;;;;;;5012538;28;20052;-80
2022/11/15 08:18:29;;;;;;;15.80;9.13;;;11.00;91.80;;;;;;5013314;28;20053;-79
2022/11/15 08:21:20;;;;;;;16.23;12.18;;;11.10;90.40;;;;;;5012378;28;20048;-79
2022/11/15 08:24:05;;;;;;;18.60;13.68;;;11.20;89.00;;;;;;5011897;28;20049;-80
2022/11/15 08:26:49;;;;;;;22.17;16.77;;;11.20;86.50;;;;;;5012258;28;20052;-85
2022/11/15 08:29:34;;;;;;;13.20;8.38;;;11.30;87.10;;;;;;5017432;28;20057;-80
2022/11/15 08:32:18;;;;;;;14.32;10.10;;;11.40;80.00;;;;;;5012708;28;20395;-79
2022/11/15 08:35:03;;;;;;;15.57;9.55;;;11.50;78.50;;;;;;5012214;28;20057;-81
2022/11/15 08:37:48;;;;;;;25.77;17.27;;;11.60;79.70;;;;;;5012286;28;20048;-79
2022/11/15 08:40:32;;;;;;;22.42;15.93;;;11.70;69.90;;;;;;5012713;28;20053;-78
2022/11/15 08:43:16;;;;;;;11.40;6.30;;;11.70;76.70;;;;;;5012604;28;20045;-79
2022/11/15 08:46:01;;;;;;;20.42;17.80;;;11.70;75.00;;;;;;5011616;28;20049;-79
2022/11/15 08:48:46;;;;;;;16.60;14.55;;;11.70;77.10;;;;;;5014382;28;20064;-79
2022/11/15 08:51:30;;;;;;;7.63;5.55;;;11.70;76.00;;;;;;5013427;28;20064;-78
2022/11/15 08:54:15;;;;;;;14.75;10.23;;;11.70;75.70;;;;;;5011714;28;20048;-78
2022/11/15 08:57:00;;;;;;;14.02;9.43;;;11.70;76.50;;;;;;5011711;28;20053;-78
2022/11/15 08:59:44;;;;;;;10.77;4.47;;;11.70;76.50;;;;;;5012151;28;20041;-79
2022/11/15 09:02:29;;;;;;;18.80;13.25;;;11.80;68.70;;;;;;5014690;28;20053;-78
2022/11/15 09:05:15;;;;;;;15.55;11.30;;;11.80;76.00;;;;;;5015453;28;20053;-79
2022/11/15 09:08:00;;;;;;;9.88;6.38;;;11.90;78.60;;;;;;5015647;28;20068;-80
2022/11/15 09:10:45;;;;;;;8.65;4.97;;;11.80;88.90;;;;;;5022564;28;20060;-80
2022/11/15 09:13:30;;;;;;;10.00;6.50;;;11.80;87.60;;;;;;5016184;28;20092;-79
2022/11/15 09:16:15;;;;;;;10.18;9.13;;;11.80;90.70;;;;;;5015214;28;20056;-79
2022/11/15 09:19:00;;;;;;;6.82;5.00;;;11.70;92.00;;;;;;5015841;28;20057;-80
2022/11/15 09:21:44;;;;;;;14.95;13.55;;;11.70;94.90;;;;;;5015927;28;20423;-79
2022/11/15 09:24:29;;;;;;;7.80;5.05;;;11.70;92.00;;;;;;5015393;28;20040;-80
2022/11/15 09:27:13;;;;;;;5.03;2.90;;;11.70;93.90;;;;;;5015157;28;20128;-79
2022/11/15 09:29:57;;;;;;;4.75;3.17;;;11.70;92.20;;;;;;5014795;28;20056;-78
2022/11/15 09:32:42;;;;;;;4.38;2.83;;;11.80;91.30;;;;;;5015289;28;20053;-79
2022/11/15 09:35:26;;;;;;;7.60;3.47;;;12.00;92.20;;;;;;5015291;28;20515;-79
2022/11/15 09:38:11;;;;;;;6.30;3.20;;;12.10;87.80;;;;;;5014911;28;20045;-79
2022/11/15 09:41:21;;;;;;;5.78;2.42;;;12.20;90.60;;;;;;5014818;28;20041;-79
2022/11/15 09:44:18;;;;;;;6.50;3.03;;;12.30;80.40;;;;;;5015906;28;20060;-81
2022/11/15 09:47:27;;;;;;;10.30;3.03;;;12.40;75.00;;;;;;5015999;28;20505;-78
2022/11/15 09:50:15;;;;;;;;;;;12.60;68.70;;;;;;5038154;28;20722;-77
2022/11/15 09:52:44;;;;;;;8.25;2.92;;;12.70;63.00;;;;;;5035604;28;19920;-79
2022/11/15 09:55:14;;;;;;;3.90;2.17;;;12.80;61.30;;;;;;5014848;28;20447;-78
2022/11/15 09:57:53;;;;;;;5.05;2.10;;;12.90;59.50;;;;;;5015407;28;20468;-78
2022/11/15 10:00:19;;;;;;;5.72;2.83;;;12.90;56.40;;;;;;5014480;28;20034;-79
2022/11/15 10:03:02;;;;;;;4.25;2.42;;;12.90;60.60;;;;;;5014930;28;20069;-80
2022/11/15 10:05:29;;;;;;;5.38;3.40;;;13.00;58.00;;;;;;5014676;28;20045;-80
2022/11/15 10:08:16;;;;;;;6.20;2.85;;;13.20;52.20;;;;;;5014243;28;20486;-84
2022/11/15 10:10:46;;;;;;;4.13;2.63;;;13.20;43.40;;;;;;5014675;28;20041;-79
2022/11/15 10:13:24;;;;;;;8.90;7.13;;;13.20;47.00;;;;;;5013106;28;20041;-80
2022/11/15 10:15:53;;;;;;;8.60;7.70;;;13.30;46.60;;;;;;5014310;28;20050;-80
2022/11/15 10:18:44;;;;;;;5.70;3.22;;;13.30;53.50;;;;;;5013769;28;20483;-79
2022/11/15 10:21:40;;;;;;;6.75;2.90;;;13.20;49.90;;;;;;5013729;28;20042;-79
2022/11/15 10:24:17;;;;;;;7.50;2.83;;;13.10;52.30;;;;;;5007515;28;20042;-78
2022/11/15 10:26:48;;;;;;;8.63;2.72;;;13.10;50.10;;;;;;4997172;28;20026;-77
2022/11/15 10:29:21;;;;;;;7.47;3.88;;;13.10;48.00;;;;;;5014127;28;20490;-77
2022/11/15 10:31:48;;;;;;;14.25;7.82;;;13.10;42.20;;;;;;4996678;28;20046;-79
2022/11/15 10:34:18;;;;;;;7.63;3.28;;;13.10;45.30;;;;;;5013640;28;20045;-78
2022/11/15 10:36:46;;;;;;;6.43;3.58;;;13.10;46.80;;;;;;5014339;28;20065;-80
2022/11/15 10:39:13;;;;;;;4.88;3.10;;;13.20;41.90;;;;;;5013585;28;20036;-78
2022/11/15 10:41:42;;;;;;;5.20;2.70;;;13.10;38.00;;;;;;5014517;28;20057;-78
2022/11/15 10:44:19;;;;;;;6.30;3.05;;;13.10;35.20;;;;;;5014004;28;20034;-79
2022/11/15 10:46:54;;;;;;;4.97;2.47;;;13.20;34.10;;;;;;5014369;28;20049;-79
2022/11/15 10:49:28;;;;;;;6.55;2.67;;;13.20;37.60;;;;;;5013398;28;20440;-78
2022/11/15 10:52:08;;;;;;;4.40;2.47;;;13.30;31.50;;;;;;5014136;28;20034;-78
2022/11/15 10:54:45;;;;;;;5.90;2.70;;;13.30;26.50;;;;;;5014256;28;20053;-79
2022/11/15 10:57:17;;;;;;;4.25;2.30;;;13.40;33.20;;;;;;5013269;28;20038;-80
2022/11/15 11:00:05;;;;;;;5.07;2.55;;;13.50;34.90;;;;;;5013583;28;20025;-79
2022/11/15 11:02:45;;;;;;;3.63;2.20;;;13.70;29.30;;;;;;5013859;28;20364;-80
2022/11/15 11:05:32;;;;;;;4.40;2.13;;;13.90;19.70;;;;;;5013156;28;20034;-79
2022/11/15 11:08:04;;;;;;;4.57;2.00;;;13.90;19.20;;;;;;5013680;28;20037;-89
2022/11/15 11:10:31;;;;;;;5.00;2.30;;;13.80;14.70;;;;;;4996662;28;20042;-78
2022/11/15 11:13:14;;;;;;;5.38;3.35;;;13.70;15.50;;;;;;5013653;28;20034;-79
2022/11/15 11:15:46;;;;;;;7.75;5.00;;;13.70;18.90;;;;;;5013727;28;20514;-78
2022/11/15 11:18:44;;;;;;;8.35;5.45;;;13.80;19.00;;;;;;5012829;28;20048;-78
2022/11/15 11:21:14;;;;;;;8.23;5.22;;;13.70;20.10;;;;;;5012069;28;20065;-79
2022/11/15 11:23:54;;;;;;;5.28;4.22;;;13.70;21.70;;;;;;5013882;28;20041;-78
2022/11/15 11:26:50;;;;;;;4.43;2.25;;;13.70;20.10;;;;;;5012685;28;20146;-79
2022/11/15 11:29:38;;;;;;;3.20;1.90;;;13.70;22.90;;;;;;5013940;28;20040;-77
2022/11/15 11:32:16;;;;;;;6.22;3.05;;;13.70;19.90;;;;;;5000332;28;20042;-80
2022/11/15 11:35:07;;;;;;;20.08;14.15;;;13.70;23.00;;;;;;5015198;28;20053;-79
2022/11/15 11:37:53;;;;;;;5.93;3.05;;;13.90;25.10;;;;;;5013592;28;20038;-79
2022/11/15 11:40:57;;;;;;;4.50;2.47;;;13.90;23.10;;;;;;5012395;28;20034;-78
2022/11/15 11:43:42;;;;;;;4.35;2.00;;;14.00;16.80;;;;;;4969068;28;20042;-78
2022/11/15 11:46:32;;;;;;;4.80;3.72;;;13.80;21.00;;;;;;5012323;28;20471;-80
2022/11/15 11:49:10;;;;;;;4.43;2.63;;;13.90;26.10;;;;;;4994742;28;20391;-79
2022/11/15 11:51:42;;;;;;;5.72;2.22;;;13.90;24.90;;;;;;4978997;28;20052;-79
2022/11/15 11:54:26;;;;;;;3.17;1.90;;;14.00;26.90;;;;;;5012550;28;20414;-78
2022/11/15 11:56:54;;;;;;;7.90;2.10;;;14.10;21.60;;;;;;4994905;28;20050;-79
2022/11/15 11:59:41;;;;;;;4.15;1.80;;;14.10;17.30;;;;;;5012112;28;20475;-78
2022/11/15 12:02:35;;;;;;;2.28;1.35;;;14.20;14.10;;;;;;5001661;28;20038;-78
2022/11/15 12:05:18;;;;;;;4.10;1.42;;;14.00;15.70;;;;;;5012537;28;20030;-77
2022/11/15 12:07:48;;;;;;;2.92;1.30;;;14.00;15.20;;;;;;5012755;28;20045;-78
2022/11/15 12:10:26;;;;;;;3.97;1.65;;;14.00;17.90;;;;;;4994284;28;20042;-79
2022/11/15 12:13:01;;;;;;;4.60;1.58;;;14.00;18.30;;;;;;5012817;28;20030;-79
2022/11/15 12:15:35;;;;;;;4.25;2.30;;;14.00;20.80;;;;;;5012743;28;20061;-79
2022/11/15 12:18:01;;;;;;;2.85;1.48;;;14.10;21.70;;;;;;5012959;28;20379;-78
2022/11/15 12:20:35;;;;;;;2.28;0.95;;;14.20;17.80;;;;;;4994523;28;20387;-78
2022/11/15 12:23:22;;;;;;;3.47;1.88;;;14.10;14.60;;;;;;5012602;28;20038;-79
2022/11/15 12:26:01;;;;;;;16.80;9.40;;;14.10;16.70;;;;;;5012712;28;20042;-79
2022/11/15 12:28:35;;;;;;;3.40;2.25;;;14.20;18.80;;;;;;5011852;28;20046;-79
2022/11/15 12:31:20;;;;;;;2.97;1.00;;;14.20;14.60;;;;;;4994620;28;20452;-77
2022/11/15 12:33:48;;;;;;;2.40;1.15;;;14.20;11.40;;;;;;5012665;28;20041;-78
2022/11/15 12:36:20;;;;;;;2.70;1.23;;;14.20;19.20;;;;;;5011193;28;20044;-78
2022/11/15 12:38:54;;;;;;;3.55;1.10;;;14.30;17.70;;;;;;5012395;28;20041;-78
2022/11/15 12:41:28;;;;;;;3.60;1.50;;;14.20;16.60;;;;;;5012341;28;20098;-78
2022/11/15 12:43:56;;;;;;;6.72;1.23;;;14.20;17.60;;;;;;5012411;28;20045;-78
2022/11/15 12:46:30;;;;;;;4.60;1.67;;;14.20;14.10;;;;;;5012237;28;20049;-79
2022/11/15 12:49:07;;;;;;;3.78;1.60;;;14.20;15.40;;;;;;5012763;28;20464;-79
2022/11/15 12:51:42;;;;;;;4.47;2.50;;;14.20;17.00;;;;;;5012830;28;20098;-78
2022/11/15 12:54:24;;;;;;;4.20;1.92;;;14.10;20.80;;;;;;5011852;28;20026;-80
2022/11/15 12:57:06;;;;;;;3.75;1.33;;;14.10;19.00;;;;;;5012813;28;20049;-78
2022/11/15 12:59:54;;;;;;;6.03;1.38;;;14.10;22.80;;;;;;4995160;28;20042;-79
2022/11/15 13:02:27;;;;;;;4.88;1.45;;;14.00;20.10;;;;;;5011508;28;20042;-79
2022/11/15 13:05:15;;;;;;;2.45;1.33;;;14.00;23.40;;;;;;5012672;28;20092;-79
2022/11/15 13:07:41;;;;;;;2.63;1.58;;;14.00;22.40;;;;;;5011705;28;20045;-79
2022/11/15 13:10:10;;;;;;;2.70;1.23;;;14.00;24.80;;;;;;5011837;28;20576;-80
2022/11/15 13:12:39;;;;;;;3.80;1.60;;;13.90;25.00;;;;;;5012618;28;20033;-80
2022/11/15 13:15:17;;;;;;;3.10;1.33;;;14.00;22.90;;;;;;5012270;28;20451;-78
2022/11/15 13:17:47;;;;;;;4.25;1.55;;;14.00;19.70;;;;;;5011787;28;20399;-79
2022/11/15 13:20:16;;;;;;;4.55;2.40;;;14.00;24.60;;;;;;5011802;28;20041;-79
2022/11/15 13:23:00;;;;;;;4.50;3.47;;;14.00;24.50;;;;;;5012437;28;20097;-79
2022/11/15 13:25:39;;;;;;;2.95;1.88;;;14.00;20.10;;;;;;5011889;28;20208;-79
2022/11/15 13:28:14;;;;;;;3.63;1.17;;;14.00;21.10;;;;;;5012525;28;20460;-78
2022/11/15 13:30:49;;;;;;;4.53;1.40;;;14.00;19.00;;;;;;5012230;28;20049;-83
2022/11/15 13:33:36;;;;;;;3.17;1.13;;;14.00;16.90;;;;;;5011245;28;20456;-79
2022/11/15 13:36:18;;;;;;;5.00;2.50;;;14.00;21.30;;;;;;5011988;28;20034;-79
2022/11/15 13:38:44;;;;;;;8.82;5.28;;;14.00;16.10;;;;;;5012080;28;20034;-78
2022/11/15 13:41:20;;;;;;;7.53;3.47;;;14.00;16.30;;;;;;5011473;28;20042;-79
2022/11/15 13:43:47;;;;;;;40.33;22.23;;;13.90;13.50;;;;;;5011582;28;20395;-78
2022/11/15 13:46:33;;;;;;;72.00;41.67;;;13.90;12.40;;;;;;5011149;28;20049;-78
2022/11/15 13:49:05;;;;;;;98.28;54.88;;;13.90;14.60;;;;;;5015095;28;20479;-78
2022/11/15 13:51:46;;;;;;;13.65;7.38;;;13.90;15.50;;;;;;5015126;28;20041;-77
2022/11/15 13:54:12;;;;;;;48.00;27.88;;;13.80;15.10;;;;;;5015188;28;20049;-79
2022/11/15 13:56:43;;;;;;;22.83;12.85;;;13.80;15.20;;;;;;5015362;28;20045;-77
2022/11/15 13:59:25;;;;;;;26.73;14.85;;;13.80;14.10;;;;;;5015215;28;20045;-81
2022/11/15 14:01:52;;;;;;;117.53;65.15;;;13.80;17.60;;;;;;5016340;28;20041;-78
2022/11/15 14:04:25;;;;;;;109.10;64.97;;;13.80;15.40;;;;;;4982120;28;20030;-78
2022/11/15 14:06:54;;;;;;;32.45;21.10;;;13.80;16.50;;;;;;5020326;28;20053;-78
2022/11/15 14:09:39;;;;;;;16.43;9.77;;;13.80;19.20;;;;;;5032180;28;20034;-79
2022/11/15 14:12:24;;;;;;;6.40;3.78;;;13.80;19.90;;;;;;5022655;28;20049;-78
2022/11/15 14:14:50;;;;;;;46.15;26.80;;;13.70;16.60;;;;;;5015678;28;20371;-79
2022/11/15 14:17:40;;;;;;;22.08;13.38;;;13.70;15.60;;;;;;4997212;28;20045;-79
2022/11/15 14:20:24;;;;;;;6.30;3.60;;;13.70;15.40;;;;;;5016084;28;20057;-78
2022/11/15 14:22:53;;;;;;;17.65;10.95;;;13.60;14.30;;;;;;5015060;28;20026;-78
2022/11/15 14:25:22;;;;;;;11.00;5.15;;;13.60;15.70;;;;;;5014199;28;20045;-80
2022/11/15 14:28:09;;;;;;;4.80;2.90;;;13.50;15.20;;;;;;5015223;28;20333;-79